Kezdőlap
METAR-TAF:

METAR-TAF

Repülőterek :

Daşoguz, Türkmenisztán

földrajzi szélesség: 41-45-53N, földrajzi hosszúság: 059-49-59E, magasság: 83 m

Jelenlegi meteorológiai megfigyelések

A jelentés 28 perccel ezelõtt készült, 12:00 UTC
Kelet-északkeleti szél 14 kt
Hőmérséklet 25°C
Páratartalom 28%
Légköri nyomás 1017 hPa
Látótávolság 10 km, vagy több
felhőtlen 1500 m magasságban, és nincs gomolyfelhõ

METAR: UTAT 251200Z 06014KT CAVOK 25/05 Q1017 R08/CLRD70 NOSIG

Idő: 17:28 (12:28 UTC)

Előrejelzés

A jelentés 1 órával és 54 perccel ezelõtt készült, 10:34 UTC
Az előrejelzés 25-én 12 óra UTC és 26-én 12 óra UTC között érvényes
Észak-északkeleti szél 12 kt
Látótávolság 10 km, vagy több
felhőtlen 1500 m magasságban, és nincs gomolyfelhõ
25-én 18 óra UTC és 26-én 03 óra UTC között ideiglenes
Észak-északnyugati szél 12 kt

TAF: UTAT 251034Z 2512/2612 03012KT CAVOK TEMPO 2518/2603 33012KT

Meteorológiai megfigyelések és előrejelzések több, mint 4000 repülőtéren (METAR és TAF jelentéseket).

A térképen piros és sárga pontok jelzik az elérhető meteorológiai állomásokat.

Mozgassa az egeret a pont fölött, hogy megjelenjen az állomás neve.

Azután kattintson az időjárási megfigyelések és előrejelzések megtekintéséhez.

A térkép megváltoztatása: kattintson a fekete keresztel jelölt zöld gombra ráközelítéshez, a vonallal jelölt zöld gombra távolításhoz, vagy a zöld nyilakra a szomszédos térképek eléréséhez.


METAR-TAF: